Time;durP1;ratioP1;P1;durP2;ratioP2;P2;SDS_P1;SDS_P2;PMS_P1;PMS_P2;Temp;Humidity;BMP_temperature;BMP_pressure;BME280_temperature;BME280_humidity;BME280_pressure;Samples;Min_cycle;Max_cycle;Signal;HPM_P1;HPM_P2
2021/08/07 00:03:31;;;;;;;15.75;9.10;;;;;;;13.31;83.79;97864.89;265272;1089;23995;-81
2021/08/07 00:08:35;;;;;;;13.10;9.25;;;;;;;13.28;83.59;97857.48;265500;1090;25787;-81
2021/08/07 00:13:39;;;;;;;11.90;9.00;;;;;;;13.24;83.65;97856.56;265477;1088;25944;-82
2021/08/07 00:18:44;;;;;;;13.90;10.05;;;;;;;13.21;83.84;97859.11;265657;1088;27166;-80
2021/08/07 00:23:49;;;;;;;13.60;9.90;;;;;;;13.14;84.14;97857.74;265607;1089;23112;-80
2021/08/07 00:28:55;;;;;;;12.47;8.80;;;;;;;13.11;84.18;97855.72;265639;1089;22788;-81
2021/08/07 00:33:59;;;;;;;11.97;8.77;;;;;;;13.16;84.73;97858.22;265527;1089;24323;-81
2021/08/07 00:39:03;;;;;;;12.67;9.13;;;;;;;13.11;84.24;97858.41;265151;1088;23389;-81
2021/08/07 00:44:15;;;;;;;14.25;9.25;;;;;;;13.07;84.22;97851.33;265419;1088;22778;-81
2021/08/07 00:49:20;;;;;;;11.45;8.05;;;;;;;13.04;84.48;97858.14;265521;1089;23475;-81
2021/08/07 00:54:26;;;;;;;8.57;7.67;;;;;;;13.01;84.54;97859.58;265672;1090;22775;-80
2021/08/07 00:59:32;;;;;;;8.25;7.10;;;;;;;12.97;84.75;97858.66;265487;1089;23142;-81
2021/08/07 01:04:43;;;;;;;10.30;7.50;;;;;;;12.96;84.92;97858.98;265775;1089;22919;-81
2021/08/07 01:10:18;;;;;;;9.68;8.23;;;;;;;12.94;85.22;97869.26;265756;1090;22758;-80
2021/08/07 01:15:44;;;;;;;9.20;7.07;;;;;;;12.94;85.39;97877.32;265916;1089;22779;-81
2021/08/07 01:21:10;;;;;;;8.97;7.20;;;;;;;12.94;85.48;97880.81;265516;1090;24061;-81
2021/08/07 01:26:25;;;;;;;8.80;7.55;;;;;;;12.93;85.43;97889.21;265585;1089;22853;-81
2021/08/07 01:31:49;;;;;;;10.60;7.33;;;;;;;12.89;85.57;97899.03;265759;1089;24056;-81
2021/08/07 01:36:59;;;;;;;10.20;8.60;;;;;;;12.87;85.78;97891.30;265269;1090;24161;-81
2021/08/07 01:42:25;;;;;;;;;;;;;;;12.84;85.64;97890.04;265549;1090;23058;-81
2021/08/07 01:47:48;;;;;;;14.70;11.17;;;;;;;12.82;85.72;97902.22;265592;1089;21468;-80
2021/08/07 01:53:00;;;;;;;14.20;10.93;;;;;;;12.81;86.14;97890.66;265278;1090;24254;-81
2021/08/07 01:58:11;;;;;;;16.03;12.33;;;;;;;12.82;86.09;97896.84;265613;1089;22888;-80
2021/08/07 02:03:24;;;;;;;19.37;13.20;;;;;;;12.79;86.27;97892.91;265311;1088;22790;-81
2021/08/07 02:08:36;;;;;;;17.35;12.80;;;;;;;12.77;86.24;97892.45;265654;1089;22870;-81
2021/08/07 02:13:41;;;;;;;16.57;12.30;;;;;;;12.77;86.25;97892.45;265381;1089;22798;-81
2021/08/07 02:19:06;;;;;;;14.30;11.77;;;;;;;12.79;86.56;97895.59;265595;1089;22791;-81
2021/08/07 02:24:18;;;;;;;13.70;10.17;;;;;;;12.80;86.70;97891.80;265633;1088;22785;-81
2021/08/07 02:29:25;;;;;;;11.80;10.55;;;;;;;12.82;86.55;97900.31;265489;1088;26321;-81
2021/08/07 02:34:40;;;;;;;12.50;10.57;;;;;;;12.82;86.68;97905.69;265749;1089;22835;-81
2021/08/07 02:39:47;;;;;;;13.43;10.50;;;;;;;12.80;86.66;97905.23;265389;1089;22787;-81
2021/08/07 02:44:58;;;;;;;12.23;10.70;;;;;;;12.81;87.14;97908.70;265526;1088;22779;-82
2021/08/07 02:50:04;;;;;;;19.05;10.20;;;;;;;12.81;87.03;97917.54;265404;1090;22791;-81
2021/08/07 02:55:08;;;;;;;11.35;8.70;;;;;;;12.81;87.37;97916.77;265282;1088;22977;-81
2021/08/07 03:00:12;;;;;;;8.55;7.60;;;;;;;12.82;87.59;97915.66;265383;1090;25757;-80
2021/08/07 03:05:23;;;;;;;9.45;7.80;;;;;;;12.86;87.94;97921.16;265701;1088;22790;-81
2021/08/07 03:10:55;;;;;;;8.33;7.53;;;;;;;12.92;88.08;97923.34;265338;1089;22794;-81
2021/08/07 03:16:13;;;;;;;8.40;7.47;;;;;;;12.97;88.37;97917.80;265596;1089;23659;-81
2021/08/07 03:21:26;;;;;;;10.20;8.15;;;;;;;13.00;88.18;97919.83;265272;1090;22790;-82
2021/08/07 03:26:45;;;;;;;9.23;8.23;;;;;;;13.03;88.40;97914.92;265566;1089;27565;-81
2021/08/07 03:32:17;;;;;;;10.40;9.23;;;;;;;13.03;88.62;97918.39;265434;1089;22790;-81
2021/08/07 03:37:37;;;;;;;10.20;8.65;;;;;;;13.06;88.49;97917.73;265628;1089;25803;-82
2021/08/07 03:42:41;;;;;;;11.07;9.57;;;;;;;13.09;88.72;97925.15;265290;1089;22787;-82
2021/08/07 03:47:54;;;;;;;14.10;10.70;;;;;;;13.15;88.89;97926.55;265392;1089;22911;-81
2021/08/07 03:53:00;;;;;;;15.10;11.10;;;;;;;13.26;89.06;97934.23;265615;1088;22959;-81
2021/08/07 03:58:04;;;;;;;13.63;11.23;;;;;;;13.33;88.99;97940.68;265556;1089;23241;-81
2021/08/07 04:03:26;;;;;;;13.10;10.97;;;;;;;13.39;89.03;97938.61;265548;1088;23548;-81
2021/08/07 04:08:34;;;;;;;12.20;10.45;;;;;;;13.50;89.41;97942.48;265759;1090;23460;-81
2021/08/07 04:13:54;;;;;;;14.15;11.85;;;;;;;13.63;89.29;97942.56;265490;1090;25778;-81
2021/08/07 04:19:02;;;;;;;14.63;12.53;;;;;;;13.74;89.51;97937.55;265366;1090;24921;-81
2021/08/07 04:24:23;;;;;;;14.90;11.35;;;;;;;13.86;89.48;97935.72;265718;1089;27048;-81
2021/08/07 04:29:27;;;;;;;17.17;12.37;;;;;;;14.01;89.76;97930.83;265385;1089;23219;-81
2021/08/07 04:34:31;;;;;;;15.35;11.40;;;;;;;14.15;90.21;97931.31;265463;1089;22823;-81
2021/08/07 04:39:36;;;;;;;11.77;10.57;;;;;;;14.34;90.55;97935.39;265452;1088;22760;-81
2021/08/07 04:44:42;;;;;;;13.10;10.90;;;;;;;14.52;90.58;97942.19;265621;1088;22793;-81
2021/08/07 04:49:45;;;;;;;13.07;9.97;;;;;;;14.72;90.68;97947.86;265636;1090;25800;-81
2021/08/07 04:54:52;;;;;;;11.05;9.85;;;;;;;14.90;90.59;97953.83;265451;1089;23052;-81
2021/08/07 04:59:55;;;;;;;10.70;9.00;;;;;;;15.06;90.51;97962.79;265288;1089;22799;-81
2021/08/07 05:04:58;;;;;;;9.20;8.20;;;;;;;15.21;90.34;97974.82;265490;1090;23450;-81
2021/08/07 05:10:03;;;;;;;9.30;7.90;;;;;;;15.39;90.37;97972.67;265513;1089;25777;-82
2021/08/07 05:15:09;;;;;;;8.25;7.30;;;;;;;15.58;90.06;97957.78;265097;1088;27697;-81
2021/08/07 05:20:14;;;;;;;8.50;6.15;;;;;;;15.81;90.05;97977.00;264980;1089;27543;-82
2021/08/07 05:25:17;;;;;;;7.50;5.77;;;;;;;16.03;90.10;97970.29;264916;1090;24359;-81
2021/08/07 05:30:22;;;;;;;5.55;4.90;;;;;;;16.28;89.73;97970.16;265108;1088;22755;-82
2021/08/07 05:35:47;;;;;;;5.20;4.25;;;;;;;16.58;89.70;97977.90;265494;1088;22907;-81
2021/08/07 05:41:05;;;;;;;4.30;3.90;;;;;;;16.80;89.10;97978.42;265426;1088;23425;-82
2021/08/07 05:46:09;;;;;;;3.90;3.60;;;;;;;17.01;88.73;97978.18;265571;1089;25772;-80
2021/08/07 05:51:13;;;;;;;5.10;3.40;;;;;;;17.19;88.09;97984.78;265731;1089;22761;-81
2021/08/07 05:56:18;;;;;;;3.93;3.50;;;;;;;17.39;87.90;97987.55;265612;1089;25918;-81
2021/08/07 06:01:22;;;;;;;5.30;3.20;;;;;;;17.58;87.40;97990.30;265761;1089;22813;-81
2021/08/07 06:06:26;;;;;;;3.70;3.40;;;;;;;17.77;86.72;97986.06;265245;1090;22912;-82
2021/08/07 06:11:32;;;;;;;3.80;3.30;;;;;;;17.88;85.52;97992.48;265553;1089;22824;-81
2021/08/07 06:16:37;;;;;;;3.20;2.60;;;;;;;18.01;85.55;98001.28;265681;1089;24520;-82
2021/08/07 06:21:42;;;;;;;2.50;2.30;;;;;;;18.17;85.15;98009.33;265402;1089;22844;-82
2021/08/07 06:26:47;;;;;;;2.35;2.25;;;;;;;18.31;84.85;98022.38;265185;1090;26236;-81
2021/08/07 06:31:51;;;;;;;2.20;2.10;;;;;;;18.48;84.67;98013.00;265549;1089;22779;-82
2021/08/07 06:36:55;;;;;;;3.40;2.70;;;;;;;18.67;82.26;98020.33;265181;1089;23445;-82
2021/08/07 06:41:58;;;;;;;3.65;2.70;;;;;;;18.77;82.38;98024.38;265805;1090;25269;-81
2021/08/07 06:47:29;;;;;;;2.80;2.30;;;;;;;18.92;82.38;98020.79;265850;1088;23587;-80
2021/08/07 06:52:44;;;;;;;2.50;2.30;;;;;;;19.13;81.81;98031.21;264824;1089;25877;-79
2021/08/07 06:57:54;;;;;;;5.35;2.70;;;;;;;19.29;81.03;98033.00;264180;1089;22818;-79
2021/08/07 07:03:17;;;;;;;3.25;2.60;;;;;;;19.39;80.46;98035.12;263720;1089;22827;-78
2021/08/07 07:08:22;;;;;;;2.40;2.15;;;;;;;19.60;79.24;98036.56;264677;1088;23074;-79
2021/08/07 07:13:26;;;;;;;3.40;2.27;;;;;;;19.71;79.11;98034.77;264002;1089;23327;-78
2021/08/07 07:18:31;;;;;;;2.17;1.90;;;;;;;19.97;79.17;98035.94;264273;1089;22926;-78
2021/08/07 07:23:43;;;;;;;4.00;2.10;;;;;;;20.16;78.14;98043.14;263418;1089;22812;-78
2021/08/07 07:28:51;;;;;;;2.40;2.20;;;;;;;20.29;77.31;98046.42;263665;1089;25803;-79
2021/08/07 07:34:17;;;;;;;3.65;3.10;;;;;;;20.40;77.27;98043.81;263087;1090;24309;-78
2021/08/07 07:39:27;;;;;;;2.50;2.20;;;;;;;20.60;76.85;98049.88;264160;1089;22857;-78
2021/08/07 07:44:43;;;;;;;2.35;2.15;;;;;;;20.81;75.70;98058.27;262827;1089;22797;-78
2021/08/07 07:49:47;;;;;;;2.40;2.20;;;;;;;20.93;75.28;98051.78;262974;1088;23123;-78
2021/08/07 07:54:54;;;;;;;2.55;2.35;;;;;;;20.98;73.40;98045.98;263179;1088;24300;-81
2021/08/07 07:59:57;;;;;;;3.05;2.10;;;;;;;21.10;72.09;98058.54;264262;1089;23767;-76
2021/08/07 08:05:13;;;;;;;2.70;2.50;;;;;;;21.20;72.68;98057.06;263319;1088;22862;-77
2021/08/07 08:10:29;;;;;;;1.90;1.80;;;;;;;21.35;72.01;98063.41;263639;1090;22797;-76
2021/08/07 08:15:48;;;;;;;1.83;1.67;;;;;;;21.52;71.29;98053.83;266565;1089;23353;-76
2021/08/07 08:21:02;;;;;;;2.28;2.08;;;;;;;21.86;72.42;98059.09;263602;1089;22770;-76
2021/08/07 08:26:06;;;;;;;;;;;;;;;22.06;69.09;98056.84;263674;1088;22859;-76
2021/08/07 08:31:22;;;;;;;2.08;1.98;;;;;;;22.03;69.05;98055.69;263384;1090;21464;-76
2021/08/07 08:36:36;;;;;;;2.35;2.08;;;;;;;22.31;70.88;98048.77;263962;1089;22754;-77
2021/08/07 08:41:57;;;;;;;2.43;2.30;;;;;;;22.41;68.64;98063.64;263253;1090;22839;-76
2021/08/07 08:47:00;;;;;;;2.03;1.85;;;;;;;22.33;68.75;98065.58;263620;1088;23961;-76
2021/08/07 08:52:10;;;;;;;2.20;2.05;;;;;;;22.47;68.46;98059.39;263616;1089;23657;-76
2021/08/07 08:57:32;;;;;;;2.28;2.10;;;;;;;22.66;67.68;98060.98;263544;1089;22750;-77
2021/08/07 09:02:37;;;;;;;2.23;2.03;;;;;;;22.98;67.26;98060.25;263577;1090;22819;-79
2021/08/07 09:07:46;;;;;;;2.05;1.95;;;;;;;23.09;66.38;98060.27;264102;1089;22845;-79
2021/08/07 09:12:59;;;;;;;2.38;2.28;;;;;;;23.39;65.43;98056.38;266901;1088;25900;-79
2021/08/07 09:18:13;;;;;;;2.95;2.63;;;;;;;23.75;64.89;98061.80;263943;1088;23339;-79
2021/08/07 09:23:34;;;;;;;3.18;2.88;;;;;;;23.97;63.60;98068.03;263730;1088;22783;-79
2021/08/07 09:28:45;;;;;;;2.53;2.30;;;;;;;24.26;63.60;98062.47;263770;1089;22857;-79
2021/08/07 09:34:21;;;;;;;3.03;2.83;;;;;;;24.48;61.17;98067.83;264696;1090;22795;-79
2021/08/07 09:39:44;;;;;;;2.20;2.10;;;;;;;24.51;62.34;98067.83;265029;1089;22832;-82
2021/08/07 09:45:09;;;;;;;3.33;3.03;;;;;;;24.76;60.83;98062.23;266217;1089;22805;-78
2021/08/07 09:50:26;;;;;;;3.10;2.80;;;;;;;24.75;59.32;98060.67;265457;1089;23000;-81
2021/08/07 09:55:33;;;;;;;2.95;2.25;;;;;;;24.91;60.17;98057.42;265917;1089;22837;-81
2021/08/07 10:00:40;;;;;;;2.73;2.53;;;;;;;24.84;58.00;98062.19;266380;1088;26017;-81
2021/08/07 10:06:02;;;;;;;2.60;2.30;;;;;;;24.75;57.86;98063.41;266469;1089;22754;-82
2021/08/07 10:11:12;;;;;;;4.83;3.60;;;;;;;24.66;57.07;98059.55;265829;1089;27054;-82
2021/08/07 10:16:19;;;;;;;2.65;2.45;;;;;;;24.47;55.23;98061.59;266490;1090;23827;-82
2021/08/07 10:21:24;;;;;;;2.98;2.70;;;;;;;24.53;57.77;98064.69;266741;1089;22803;-82
2021/08/07 10:26:28;;;;;;;2.10;2.00;;;;;;;24.65;57.40;98058.78;266139;1089;23146;-81
2021/08/07 10:31:36;;;;;;;2.33;1.55;;;;;;;24.88;56.56;98041.80;266150;1090;27565;-82
2021/08/07 10:36:43;;;;;;;1.98;1.50;;;;;;;24.93;55.54;98044.12;265798;1089;22779;-83
2021/08/07 10:41:49;;;;;;;2.93;2.63;;;;;;;24.94;55.50;98034.72;265919;1090;22868;-79
2021/08/07 10:46:54;;;;;;;1.50;1.40;;;;;;;25.06;55.97;98040.89;264500;1089;22941;-79
2021/08/07 10:51:58;;;;;;;2.13;1.93;;;;;;;25.09;54.04;98035.38;264164;1089;22873;-79
2021/08/07 10:57:38;;;;;;;1.98;1.78;;;;;;;25.20;55.89;98029.05;264404;1089;23562;-79
2021/08/07 11:02:47;;;;;;;2.95;2.05;;;;;;;25.56;56.53;98026.77;266409;1089;22783;-79
2021/08/07 11:08:15;;;;;;;2.15;1.95;;;;;;;26.10;53.25;98017.94;265245;1088;22936;-82
2021/08/07 11:13:24;;;;;;;1.07;1.00;;;;;;;26.41;47.07;98022.66;265523;1089;22913;-81
2021/08/07 11:18:27;;;;;;;;;;;;;;;26.37;44.96;98011.73;265888;1089;22880;-81
2021/08/07 11:23:37;;;;;;;1.20;1.10;;;;;;;26.26;44.19;98019.31;265636;1089;21484;-81
2021/08/07 11:29:05;;;;;;;1.73;1.28;;;;;;;26.37;45.92;98017.23;265660;1088;23597;-81
2021/08/07 11:34:23;;;;;;;2.43;1.20;;;;;;;26.47;42.38;98018.25;265527;1089;22821;-81
2021/08/07 11:40:14;;;;;;;1.73;1.63;;;;;;;26.54;43.80;98020.91;265617;1090;23359;-81
2021/08/07 11:45:39;;;;;;;1.20;1.10;;;;;;;26.67;42.46;98021.12;265711;1088;23363;-81
2021/08/07 11:50:48;;;;;;;1.00;1.00;;;;;;;26.73;41.53;98019.47;265661;1089;22816;-81
2021/08/07 11:56:12;;;;;;;1.05;1.00;;;;;;;26.72;42.31;98006.95;265804;1089;22787;-81
2021/08/07 12:01:17;;;;;;;1.23;1.13;;;;;;;26.61;42.34;98006.28;266072;1089;22784;-81
2021/08/07 12:06:30;;;;;;;0.88;0.85;;;;;;;26.46;41.51;98006.49;265681;1089;22809;-81
2021/08/07 12:11:34;;;;;;;0.83;0.83;;;;;;;26.28;41.78;98014.20;264840;1088;27237;-81
2021/08/07 12:16:41;;;;;;;1.60;1.50;;;;;;;26.16;42.23;98003.78;264882;1089;22786;-81
2021/08/07 12:21:45;;;;;;;2.70;1.43;;;;;;;26.22;43.41;98005.66;264916;1089;22890;-82
2021/08/07 12:26:58;;;;;;;1.43;1.20;;;;;;;26.24;43.33;97997.00;264841;1090;23310;-80
2021/08/07 12:32:04;;;;;;;1.63;1.07;;;;;;;26.46;43.46;97998.26;265019;1088;22817;-81
2021/08/07 12:37:11;;;;;;;0.85;0.85;;;;;;;26.58;41.58;97994.18;264730;1090;22612;-81
2021/08/07 12:42:19;;;;;;;0.85;0.85;;;;;;;26.74;42.79;97984.56;265212;1088;22831;-81
2021/08/07 12:47:31;;;;;;;1.58;1.48;;;;;;;26.88;41.98;97998.06;265266;1089;22770;-80
2021/08/07 12:52:49;;;;;;;1.60;1.50;;;;;;;26.99;43.34;97992.39;265306;1088;22743;-81
2021/08/07 12:58:22;;;;;;;1.18;1.13;;;;;;;26.98;42.92;97988.86;264919;1090;22802;-81
2021/08/07 13:04:01;;;;;;;1.23;1.13;;;;;;;27.01;44.53;97972.73;265226;1090;23327;-81
2021/08/07 13:09:30;;;;;;;1.48;1.28;;;;;;;27.10;44.22;97976.50;265254;1089;24331;-80
2021/08/07 13:14:36;;;;;;;1.98;1.88;;;;;;;26.73;44.52;97983.77;264934;1089;22790;-80
2021/08/07 13:19:45;;;;;;;1.50;1.40;;;;;;;26.43;45.54;97971.64;265197;1089;22817;-80
2021/08/07 13:24:57;;;;;;;2.20;1.45;;;;;;;26.40;45.06;97977.96;265162;1089;26409;-80
2021/08/07 13:30:17;;;;;;;1.83;1.68;;;;;;;26.20;45.78;97977.06;265063;1089;24310;-80
2021/08/07 13:35:24;;;;;;;2.20;2.00;;;;;;;26.29;44.88;97980.84;265205;1090;22782;-80
2021/08/07 13:40:33;;;;;;;1.38;1.23;;;;;;;26.43;45.97;97971.64;265627;1090;25780;-80
2021/08/07 13:45:38;;;;;;;4.15;1.90;;;;;;;26.76;45.65;97968.42;265595;1089;22795;-80
2021/08/07 13:50:41;;;;;;;1.70;1.60;;;;;;;27.00;44.73;97965.68;264876;1089;23000;-81
2021/08/07 13:55:44;;;;;;;2.17;1.97;;;;;;;26.95;43.21;97964.20;265391;1089;22979;-81
2021/08/07 14:00:47;;;;;;;2.05;1.55;;;;;;;26.82;43.43;97966.77;265158;1089;22757;-80
2021/08/07 14:05:52;;;;;;;1.50;1.28;;;;;;;26.76;43.95;97969.19;264298;1090;24323;-79
2021/08/07 14:10:56;;;;;;;3.38;1.60;;;;;;;26.70;42.70;97965.38;264134;1089;22785;-80
2021/08/07 14:16:27;;;;;;;1.80;1.53;;;;;;;26.52;43.60;97964.84;264321;1088;22882;-80
2021/08/07 14:21:49;;;;;;;1.58;1.48;;;;;;;26.55;44.32;97970.27;264030;1090;22657;-79
2021/08/07 14:26:54;;;;;;;2.05;1.73;;;;;;;26.69;44.72;97955.57;263635;1089;22827;-78
2021/08/07 14:31:57;;;;;;;1.40;1.30;;;;;;;26.79;44.10;97943.66;263759;1089;23356;-79
2021/08/07 14:37:02;;;;;;;2.68;2.43;;;;;;;26.81;44.09;97954.22;263720;1090;26265;-79
2021/08/07 14:42:05;;;;;;;1.50;1.40;;;;;;;26.76;43.68;97952.70;263270;1089;22828;-79
2021/08/07 14:47:10;;;;;;;2.38;1.83;;;;;;;26.75;44.74;97950.38;263356;1089;25800;-79
2021/08/07 14:52:13;;;;;;;1.38;1.30;;;;;;;26.72;45.01;97952.02;263320;1089;25860;-78
2021/08/07 14:57:16;;;;;;;1.40;1.30;;;;;;;26.78;45.17;97947.59;263320;1089;24475;-78
2021/08/07 15:02:19;;;;;;;1.35;1.25;;;;;;;26.85;45.55;97940.41;263421;1090;24310;-78
2021/08/07 15:07:31;;;;;;;2.23;2.03;;;;;;;26.86;44.74;97933.73;263202;1088;22779;-79
2021/08/07 15:12:35;;;;;;;1.78;1.68;;;;;;;26.85;44.89;97927.47;262852;1088;22974;-79
2021/08/07 15:17:40;;;;;;;2.20;2.00;;;;;;;26.85;45.99;97932.96;262820;1088;22806;-78
2021/08/07 15:22:45;;;;;;;2.25;2.05;;;;;;;26.98;45.78;97927.63;262707;1089;22985;-79
2021/08/07 15:27:50;;;;;;;2.90;2.10;;;;;;;26.98;45.00;97930.38;263136;1088;27772;-78
2021/08/07 15:33:07;;;;;;;2.10;1.90;;;;;;;26.95;45.86;97915.50;263123;1089;22873;-78
2021/08/07 15:38:17;;;;;;;2.05;1.95;;;;;;;26.90;44.72;97917.95;263420;1088;22975;-79
2021/08/07 15:43:22;;;;;;;2.15;1.95;;;;;;;26.85;45.54;97918.42;263433;1088;25892;-79
2021/08/07 15:48:25;;;;;;;2.03;1.83;;;;;;;26.79;45.48;97907.94;263372;1088;22885;-78
2021/08/07 15:53:30;;;;;;;3.33;2.10;;;;;;;26.76;44.73;97906.00;262818;1089;22968;-77
2021/08/07 15:58:33;;;;;;;2.15;1.70;;;;;;;26.67;45.36;97905.75;263183;1089;25806;-77
2021/08/07 16:03:36;;;;;;;3.60;1.90;;;;;;;26.59;45.88;97910.58;263010;1090;25918;-78
2021/08/07 16:08:41;;;;;;;2.53;2.23;;;;;;;26.57;46.31;97917.67;262885;1089;26012;-78
2021/08/07 16:13:44;;;;;;;2.73;2.20;;;;;;;26.54;46.77;97907.53;262904;1089;22773;-78
2021/08/07 16:19:02;;;;;;;2.00;1.90;;;;;;;26.56;46.93;97905.92;262676;1089;23001;-77
2021/08/07 16:24:12;;;;;;;2.85;2.28;;;;;;;26.56;46.96;97899.66;262702;1088;22798;-78
2021/08/07 16:29:15;;;;;;;2.63;2.03;;;;;;;26.53;47.17;97887.54;262706;1090;25016;-77
2021/08/07 16:34:20;;;;;;;2.73;2.50;;;;;;;26.47;47.76;97900.97;262816;1089;22922;-78
2021/08/07 16:39:23;;;;;;;3.20;2.90;;;;;;;26.38;47.69;97891.71;263119;1089;24373;-77
2021/08/07 16:44:26;;;;;;;4.80;3.13;;;;;;;26.34;48.32;97896.48;263072;1089;25647;-77
2021/08/07 16:49:32;;;;;;;3.23;2.78;;;;;;;26.24;48.68;97904.45;263040;1090;22783;-76
2021/08/07 16:54:36;;;;;;;2.83;2.53;;;;;;;26.13;48.80;97910.11;263073;1090;22817;-77
2021/08/07 16:59:38;;;;;;;3.68;3.00;;;;;;;26.04;48.96;97907.09;263185;1087;25751;-77
2021/08/07 17:04:43;;;;;;;3.73;2.90;;;;;;;25.93;49.60;97901.72;263059;1089;24203;-77
2021/08/07 17:09:47;;;;;;;3.50;3.03;;;;;;;25.91;50.22;97900.58;262783;1088;26034;-77
2021/08/07 17:14:50;;;;;;;4.60;3.13;;;;;;;25.83;50.08;97894.42;263289;1089;23613;-77
2021/08/07 17:19:54;;;;;;;4.23;3.53;;;;;;;25.67;50.21;97896.98;262759;1090;22833;-77
2021/08/07 17:24:57;;;;;;;3.45;3.15;;;;;;;25.52;51.56;97897.16;263151;1089;26018;-77
2021/08/07 17:30:01;;;;;;;4.08;3.18;;;;;;;25.43;51.98;97913.31;263031;1089;25998;-76
2021/08/07 17:35:10;;;;;;;3.10;2.80;;;;;;;25.31;52.06;97900.11;262739;1090;22846;-76
2021/08/07 17:40:14;;;;;;;3.98;3.30;;;;;;;25.14;52.72;97907.34;263192;1089;22779;-77
2021/08/07 17:45:17;;;;;;;4.00;3.60;;;;;;;24.94;53.28;97907.92;262921;1089;24025;-77
2021/08/07 17:50:20;;;;;;;4.23;3.50;;;;;;;24.78;53.56;97897.52;262621;1089;25875;-76
2021/08/07 17:55:23;;;;;;;4.40;3.48;;;;;;;24.60;54.17;97901.17;263035;1090;22896;-77
2021/08/07 18:00:28;;;;;;;14.70;13.08;;;;;;;24.43;54.36;97897.36;262777;1090;22805;-76
2021/08/07 18:05:31;;;;;;;6.48;4.98;;;;;;;24.26;55.29;97901.79;263326;1088;22979;-75
2021/08/07 18:10:43;;;;;;;4.45;3.83;;;;;;;24.11;55.26;97891.35;263176;1089;24046;-76
2021/08/07 18:16:04;;;;;;;6.38;4.65;;;;;;;23.93;56.30;97897.69;262663;1088;22937;-76
2021/08/07 18:21:08;;;;;;;5.35;4.83;;;;;;;23.78;56.80;97896.18;263073;1090;22779;-76
2021/08/07 18:26:12;;;;;;;5.88;4.60;;;;;;;23.63;57.32;97900.92;263157;1089;22908;-76
2021/08/07 18:31:17;;;;;;;7.90;4.95;;;;;;;23.48;58.08;97902.95;263093;1089;22778;-77
2021/08/07 18:36:21;;;;;;;8.70;5.98;;;;;;;23.32;58.78;97895.18;262973;1089;22937;-77
2021/08/07 18:41:24;;;;;;;10.98;6.28;;;;;;;23.12;59.32;97903.81;263006;1089;24348;-76
2021/08/07 18:46:27;;;;;;;5.93;4.98;;;;;;;22.86;59.71;97903.06;263085;1088;24373;-77
2021/08/07 18:51:30;;;;;;;6.35;4.98;;;;;;;22.61;60.26;97903.08;263099;1089;24310;-76
2021/08/07 18:56:34;;;;;;;7.35;4.73;;;;;;;22.37;61.05;97886.30;262984;1088;22834;-76
2021/08/07 19:01:43;;;;;;;9.80;4.95;;;;;;;22.22;61.08;97887.42;263034;1090;25849;-76
2021/08/07 19:06:48;;;;;;;9.18;6.23;;;;;;;22.09;61.63;97887.02;262799;1088;25803;-76
2021/08/07 19:11:52;;;;;;;8.23;6.03;;;;;;;22.00;62.04;97879.19;262958;1090;23299;-77
2021/08/07 19:17:10;;;;;;;8.33;6.27;;;;;;;21.93;62.23;97879.19;263022;1090;22862;-76
2021/08/07 19:22:14;;;;;;;10.15;6.50;;;;;;;21.86;62.63;97882.66;263024;1090;22902;-76
2021/08/07 19:27:18;;;;;;;7.18;5.00;;;;;;;21.83;62.67;97874.49;262754;1089;23530;-77
2021/08/07 19:32:23;;;;;;;7.35;4.83;;;;;;;21.77;63.10;97881.47;262904;1089;22907;-77
2021/08/07 19:37:26;;;;;;;6.55;4.58;;;;;;;21.71;63.66;97889.23;262518;1089;22785;-75
2021/08/07 19:42:29;;;;;;;6.67;5.27;;;;;;;21.62;63.58;97886.88;262655;1090;23112;-76
2021/08/07 19:47:32;;;;;;;6.63;5.03;;;;;;;21.54;64.11;97874.39;262962;1088;23745;-77
2021/08/07 19:52:36;;;;;;;8.23;5.38;;;;;;;21.47;64.20;97863.44;263051;1090;22825;-76
2021/08/07 19:57:39;;;;;;;7.10;5.53;;;;;;;21.40;64.90;97864.18;263137;1088;24319;-77
2021/08/07 20:02:42;;;;;;;5.85;4.95;;;;;;;21.31;65.29;97861.81;262571;1088;23055;-77
2021/08/07 20:07:46;;;;;;;6.80;5.23;;;;;;;21.25;65.58;97849.73;262645;1089;22789;-77
2021/08/07 20:12:50;;;;;;;6.28;5.38;;;;;;;21.23;65.69;97849.33;263000;1088;25793;-76
2021/08/07 20:17:54;;;;;;;6.20;5.48;;;;;;;21.19;66.16;97846.57;262636;1088;25771;-77
2021/08/07 20:22:58;;;;;;;5.95;4.90;;;;;;;21.14;66.15;97857.84;262712;1089;25784;-77
2021/08/07 20:28:01;;;;;;;6.17;4.50;;;;;;;21.14;66.28;97857.05;262906;1090;25086;-77
2021/08/07 20:33:04;;;;;;;7.25;5.53;;;;;;;21.15;66.73;97847.72;263056;1089;25887;-76
2021/08/07 20:38:09;;;;;;;7.33;5.33;;;;;;;21.16;66.58;97846.57;262978;1088;22839;-76
2021/08/07 20:43:12;;;;;;;6.47;4.53;;;;;;;21.15;66.74;97843.08;263151;1089;24301;-76
2021/08/07 20:48:26;;;;;;;6.50;4.50;;;;;;;21.21;66.96;97851.66;263110;1090;23270;-76
2021/08/07 20:53:50;;;;;;;6.87;4.90;;;;;;;21.28;67.22;97854.41;262877;1089;22806;-77
2021/08/07 20:58:53;;;;;;;5.00;4.50;;;;;;;21.32;67.11;97852.48;262934;1089;22903;-76
2021/08/07 21:04:10;;;;;;;4.58;4.13;;;;;;;21.37;66.91;97854.83;262526;1088;25893;-76
2021/08/07 21:09:14;;;;;;;4.30;3.90;;;;;;;21.41;66.60;97854.08;263193;1090;25783;-76
2021/08/07 21:14:17;;;;;;;4.20;3.63;;;;;;;21.44;66.71;97861.48;263052;1088;22769;-77
2021/08/07 21:19:22;;;;;;;5.43;4.08;;;;;;;21.48;66.29;97859.56;262703;1090;23451;-77
2021/08/07 21:24:40;;;;;;;4.43;3.68;;;;;;;21.57;66.02;97848.32;263079;1090;22783;-76
2021/08/07 21:30:02;;;;;;;3.60;3.30;;;;;;;21.59;66.28;97857.68;262554;1089;22782;-76
2021/08/07 21:35:08;;;;;;;5.50;3.60;;;;;;;21.60;65.97;97855.72;263137;1088;22956;-76
2021/08/07 21:40:23;;;;;;;4.83;3.53;;;;;;;21.59;65.86;97854.95;262823;1089;26261;-76
2021/08/07 21:45:29;;;;;;;4.25;3.85;;;;;;;21.59;65.94;97851.43;263084;1090;22773;-76
2021/08/07 21:50:34;;;;;;;5.43;3.88;;;;;;;21.59;65.66;97848.70;262673;1089;24037;-76
2021/08/07 21:55:37;;;;;;;4.33;3.93;;;;;;;21.56;65.70;97844.83;263017;1089;22794;-76
2021/08/07 22:00:46;;;;;;;5.07;3.77;;;;;;;21.54;65.46;97838.97;262982;1090;24352;-76
2021/08/07 22:05:53;;;;;;;4.50;4.00;;;;;;;21.48;65.28;97832.31;263116;1089;23020;-76
2021/08/07 22:10:59;;;;;;;6.03;4.07;;;;;;;21.35;65.56;97829.16;262848;1089;22774;-76
2021/08/07 22:16:04;;;;;;;4.83;3.90;;;;;;;21.22;65.66;97831.42;262454;1089;22821;-76
2021/08/07 22:21:12;;;;;;;5.05;4.48;;;;;;;21.12;65.79;97821.27;262578;1088;22788;-76
2021/08/07 22:26:38;;;;;;;4.90;4.30;;;;;;;21.01;66.13;97816.55;262847;1089;25980;-76
2021/08/07 22:31:41;;;;;;;5.70;4.17;;;;;;;20.96;65.96;97811.47;262846;1090;22916;-77
2021/08/07 22:36:48;;;;;;;4.90;4.00;;;;;;;20.95;65.93;97806.41;262988;1089;22809;-76
2021/08/07 22:41:53;;;;;;;4.87;3.77;;;;;;;20.99;66.00;97801.76;262943;1089;22780;-77
2021/08/07 22:46:57;;;;;;;5.95;3.80;;;;;;;21.03;66.20;97797.89;262961;1089;25796;-76
2021/08/07 22:52:01;;;;;;;3.90;3.17;;;;;;;21.07;66.11;97794.39;262728;1089;22760;-76
2021/08/07 22:57:04;;;;;;;3.40;3.10;;;;;;;21.16;65.48;97779.27;262945;1090;23048;-76
2021/08/07 23:02:23;;;;;;;3.30;3.00;;;;;;;21.24;65.50;97779.28;262610;1089;24473;-76
2021/08/07 23:07:35;;;;;;;3.50;3.20;;;;;;;21.26;65.32;97780.47;263010;1090;22807;-77
2021/08/07 23:12:38;;;;;;;3.10;2.80;;;;;;;21.29;65.11;97763.35;262881;1090;22888;-77
2021/08/07 23:17:43;;;;;;;2.65;2.40;;;;;;;21.34;64.79;97749.37;262909;1088;26369;-76
2021/08/07 23:22:47;;;;;;;3.00;2.70;;;;;;;21.45;64.56;97748.64;262863;1089;22786;-76
2021/08/07 23:27:51;;;;;;;3.03;2.65;;;;;;;21.52;63.85;97740.50;262939;1089;25838;-76
2021/08/07 23:32:54;;;;;;;4.88;2.35;;;;;;;21.58;63.54;97736.22;262941;1089;25803;-77
2021/08/07 23:38:10;;;;;;;3.60;2.30;;;;;;;21.61;63.50;97729.22;262529;1089;22860;-75
2021/08/07 23:43:29;;;;;;;2.65;2.20;;;;;;;21.61;63.24;97729.98;262927;1089;24202;-76
2021/08/07 23:48:33;;;;;;;3.00;2.10;;;;;;;21.60;62.70;97742.08;262624;1090;22944;-75
2021/08/07 23:53:38;;;;;;;2.23;1.90;;;;;;;21.60;62.72;97742.08;262961;1089;25661;-75
2021/08/07 23:59:01;;;;;;;2.70;2.30;;;;;;;21.58;63.02;97736.22;262935;1088;22792;-76
